createdAt,value
2023-01-30T00:04:12.579Z,16.30
2023-01-30T00:09:17.056Z,14.70
2023-01-30T00:14:19.470Z,15.20
2023-01-30T00:19:22.004Z,14.40
2023-01-30T00:24:24.121Z,15.00
2023-01-30T00:29:26.194Z,13.90
2023-01-30T00:34:35.443Z,13.50
2023-01-30T00:39:40.753Z,14.10
2023-01-30T00:45:01.659Z,14.00
2023-01-30T00:50:05.552Z,13.70
2023-01-30T00:55:09.005Z,13.90
2023-01-30T01:00:11.794Z,15.60
2023-01-30T01:05:15.878Z,14.00
2023-01-30T01:10:18.229Z,13.30
2023-01-30T01:15:22.402Z,13.90
2023-01-30T01:20:24.453Z,14.20
2023-01-30T01:25:26.432Z,12.10
2023-01-30T01:30:28.313Z,11.30
2023-01-30T01:35:30.156Z,12.80
2023-01-30T01:40:50.647Z,14.60
2023-01-30T01:45:58.632Z,12.70
2023-01-30T01:51:17.713Z,13.00
2023-01-30T01:56:20.939Z,11.90
2023-01-30T02:01:23.097Z,9.60
2023-01-30T02:06:28.335Z,12.50
2023-01-30T02:11:47.860Z,9.70
2023-01-30T02:16:49.755Z,11.70
2023-01-30T02:22:18.458Z,11.80
2023-01-30T02:27:34.232Z,10.90
2023-01-30T02:32:56.199Z,7.80
2023-01-30T02:38:10.780Z,8.70
2023-01-30T02:43:46.748Z,10.60
2023-01-30T02:48:57.656Z,9.10
2023-01-30T02:54:00.585Z,8.40
2023-01-30T02:59:08.535Z,9.00
2023-01-30T03:04:32.868Z,9.50
2023-01-30T03:09:52.574Z,9.50
2023-01-30T03:15:17.901Z,9.20
2023-01-30T03:20:23.896Z,9.10
2023-01-30T03:25:29.410Z,9.60
2023-01-30T03:30:31.703Z,7.50
2023-01-30T03:35:41.382Z,8.70
2023-01-30T03:40:45.003Z,8.50
2023-01-30T03:45:47.049Z,8.00
2023-01-30T03:50:49.367Z,9.50
2023-01-30T03:55:51.772Z,10.30
2023-01-30T04:00:57.820Z,9.70
2023-01-30T04:06:00.882Z,9.50
2023-01-30T04:11:04.260Z,10.10
2023-01-30T04:16:17.878Z,11.20
2023-01-30T04:21:46.429Z,9.70
2023-01-30T04:26:48.634Z,7.10
2023-01-30T04:31:51.240Z,9.80
2023-01-30T04:37:02.889Z,7.80
2023-01-30T04:42:05.691Z,9.20
2023-01-30T04:47:13.069Z,8.40
2023-01-30T04:52:16.256Z,8.40
2023-01-30T04:57:18.189Z,7.10
2023-01-30T05:02:23.936Z,7.90
2023-01-30T05:07:29.150Z,10.30
2023-01-30T05:12:39.387Z,7.10
2023-01-30T05:17:43.762Z,10.70
2023-01-30T05:22:46.609Z,10.40
2023-01-30T05:27:48.744Z,8.20
2023-01-30T05:32:50.803Z,7.60
2023-01-30T05:37:53.014Z,10.60
2023-01-30T05:42:54.931Z,10.80
2023-01-30T05:48:01.326Z,11.10
2023-01-30T05:53:03.659Z,10.50
2023-01-30T05:58:06.185Z,10.40
2023-01-30T06:03:08.074Z,11.40
2023-01-30T06:08:10.048Z,12.00
2023-01-30T06:13:12.100Z,9.00
2023-01-30T06:18:14.039Z,11.90
2023-01-30T06:23:16.370Z,8.70
2023-01-30T06:28:19.184Z,10.50
2023-01-30T06:33:21.141Z,10.70
2023-01-30T06:38:23.047Z,12.30
2023-01-30T06:43:25.191Z,9.50
2023-01-30T06:48:27.451Z,12.20
2023-01-30T06:53:32.329Z,10.40
2023-01-30T06:58:34.157Z,11.20
2023-01-30T07:03:36.047Z,9.70
2023-01-30T07:08:37.993Z,9.70
2023-01-30T07:13:39.846Z,8.90
2023-01-30T07:18:42.074Z,10.10
2023-01-30T07:23:44.120Z,8.70
2023-01-30T07:28:47.146Z,11.20
2023-01-30T07:33:49.386Z,10.90
2023-01-30T07:38:51.603Z,10.20
2023-01-30T07:43:54.058Z,9.90
2023-01-30T07:48:56.649Z,11.70
2023-01-30T07:54:02.007Z,9.90
2023-01-30T07:59:05.701Z,12.10
2023-01-30T08:04:07.694Z,12.10
2023-01-30T08:09:10.166Z,13.20
2023-01-30T08:14:12.266Z,11.80
2023-01-30T08:19:14.649Z,12.00
2023-01-30T08:24:16.914Z,12.40
2023-01-30T08:29:19.083Z,11.80
2023-01-30T08:34:21.032Z,12.50
2023-01-30T08:39:22.903Z,12.00
2023-01-30T08:44:25.221Z,14.50
2023-01-30T08:49:27.254Z,12.30
2023-01-30T08:54:31.375Z,10.90
2023-01-30T08:59:35.249Z,13.00
2023-01-30T09:04:37.384Z,12.80
2023-01-30T09:09:39.344Z,11.70
2023-01-30T09:14:41.218Z,14.60
2023-01-30T09:19:43.496Z,11.00
2023-01-30T09:24:45.492Z,10.60
2023-01-30T09:29:47.896Z,11.70
2023-01-30T09:34:50.696Z,9.30
2023-01-30T09:39:58.004Z,10.80
2023-01-30T09:45:24.370Z,12.60
2023-01-30T09:50:35.752Z,13.20
2023-01-30T09:55:41.799Z,14.20
2023-01-30T10:00:44.150Z,13.80
2023-01-30T10:05:53.827Z,15.20
2023-01-30T10:11:16.949Z,15.20
2023-01-30T10:16:28.359Z,13.90
2023-01-30T10:22:16.097Z,12.70
2023-01-30T10:27:20.824Z,12.20
2023-01-30T10:32:46.452Z,15.00
2023-01-30T10:37:59.529Z,13.50
2023-01-30T10:43:26.043Z,13.80
2023-01-30T10:48:45.726Z,12.50
2023-01-30T10:54:02.813Z,12.80
2023-01-30T10:59:20.312Z,13.40
2023-01-30T11:04:37.209Z,13.50
2023-01-30T11:09:44.584Z,10.80
2023-01-30T11:14:52.948Z,12.40
2023-01-30T11:19:56.892Z,13.00
2023-01-30T11:25:25.944Z,11.50
2023-01-30T11:30:33.714Z,12.80
2023-01-30T11:35:42.678Z,14.90
2023-01-30T11:40:45.408Z,12.10
2023-01-30T11:45:50.152Z,12.40
2023-01-30T11:50:58.394Z,15.20
2023-01-30T11:56:09.121Z,13.80
2023-01-30T12:01:13.405Z,14.40
2023-01-30T12:06:24.311Z,13.50
2023-01-30T12:11:32.178Z,13.40
2023-01-30T12:17:00.627Z,12.60
2023-01-30T12:22:24.636Z,15.10
2023-01-30T12:27:38.996Z,14.70
2023-01-30T12:32:42.196Z,15.00
2023-01-30T12:38:10.821Z,13.60
2023-01-30T12:43:39.452Z,16.20
2023-01-30T12:49:07.947Z,14.50
2023-01-30T12:54:35.731Z,15.80
2023-01-30T13:00:00.418Z,13.40
2023-01-30T13:05:26.344Z,12.80
2023-01-30T13:10:39.825Z,13.90
2023-01-30T13:16:07.686Z,8.50
2023-01-30T13:21:21.333Z,9.50
2023-01-30T13:26:28.812Z,8.40
2023-01-30T13:31:36.809Z,7.70
2023-01-30T13:37:04.165Z,6.70
2023-01-30T13:42:13.428Z,6.00
2023-01-30T13:47:46.449Z,6.00
2023-01-30T13:52:55.387Z,6.20
2023-01-30T13:58:26.452Z,6.00
2023-01-30T14:03:40.611Z,5.00
2023-01-30T14:08:59.600Z,5.80
2023-01-30T14:14:21.764Z,6.50
2023-01-30T14:19:54.079Z,5.80
2023-01-30T14:25:35.418Z,5.00
2023-01-30T14:30:38.735Z,6.20
2023-01-30T14:35:40.942Z,5.60
2023-01-30T14:40:58.343Z,6.40
2023-01-30T14:46:25.109Z,6.20
2023-01-30T14:51:39.338Z,5.80
2023-01-30T14:57:06.179Z,5.60
2023-01-30T15:02:17.184Z,6.40
2023-01-30T15:07:43.869Z,6.30
2023-01-30T15:13:27.949Z,6.10
2023-01-30T15:19:03.873Z,6.40
2023-01-30T15:24:45.085Z,6.30
2023-01-30T15:30:36.045Z,6.70
2023-01-30T15:35:43.969Z,6.30
2023-01-30T15:40:49.577Z,7.10
2023-01-30T15:46:25.355Z,7.10
2023-01-30T15:51:30.758Z,7.00
2023-01-30T15:56:33.336Z,7.00
2023-01-30T16:01:35.469Z,7.20
2023-01-30T16:06:38.323Z,7.40
2023-01-30T16:11:42.842Z,6.70
2023-01-30T16:17:11.917Z,8.90
2023-01-30T16:22:20.920Z,6.90
2023-01-30T16:27:30.886Z,6.30
2023-01-30T16:32:33.708Z,6.70
2023-01-30T16:37:36.404Z,7.10
2023-01-30T16:42:40.887Z,7.30
2023-01-30T16:47:42.880Z,6.20
2023-01-30T16:52:47.850Z,5.90
2023-01-30T16:57:55.437Z,7.50
2023-01-30T17:03:03.867Z,9.80
2023-01-30T17:08:09.053Z,9.00
2023-01-30T17:13:43.397Z,8.80
2023-01-30T17:18:58.369Z,8.50
2023-01-30T17:24:03.176Z,8.50
2023-01-30T17:29:07.228Z,9.40
2023-01-30T17:34:12.402Z,8.50
2023-01-30T17:39:18.183Z,9.30
2023-01-30T17:44:21.237Z,8.40
2023-01-30T17:49:26.443Z,9.20
2023-01-30T17:54:30.182Z,8.60
2023-01-30T17:59:32.737Z,8.40
2023-01-30T18:04:34.705Z,7.70
2023-01-30T18:09:36.734Z,8.10
2023-01-30T18:14:38.665Z,8.60
2023-01-30T18:19:40.658Z,8.30
2023-01-30T18:24:42.760Z,9.10
2023-01-30T18:29:45.452Z,8.10
2023-01-30T18:34:47.472Z,7.70
2023-01-30T18:39:50.194Z,7.80
2023-01-30T18:44:52.286Z,7.50
2023-01-30T18:49:54.344Z,7.60
2023-01-30T18:54:56.432Z,7.20
2023-01-30T18:59:58.345Z,6.50
2023-01-30T19:05:00.689Z,6.20
2023-01-30T19:10:03.961Z,5.90
2023-01-30T19:15:06.549Z,5.90
2023-01-30T19:20:10.939Z,7.00
2023-01-30T19:25:13.252Z,6.20
2023-01-30T19:30:15.459Z,6.30
2023-01-30T19:35:18.140Z,7.10
2023-01-30T19:40:20.710Z,7.80
2023-01-30T19:45:23.489Z,7.70
2023-01-30T19:50:25.401Z,5.70
2023-01-30T19:55:27.310Z,5.10
2023-01-30T20:00:29.215Z,4.50
2023-01-30T20:05:31.946Z,3.40
2023-01-30T20:10:33.955Z,2.60
2023-01-30T20:15:39.482Z,4.00
2023-01-30T20:20:41.480Z,2.80
2023-01-30T20:25:43.408Z,3.00
2023-01-30T20:30:45.451Z,3.10
2023-01-30T20:35:47.599Z,3.80
2023-01-30T20:40:49.827Z,2.80
2023-01-30T20:46:03.376Z,3.30
2023-01-30T20:51:11.317Z,3.10
2023-01-30T20:56:13.285Z,2.70
2023-01-30T21:01:18.604Z,2.60
2023-01-30T21:06:42.756Z,3.00
2023-01-30T21:11:48.568Z,3.10
2023-01-30T21:16:50.652Z,3.40
2023-01-30T21:21:55.336Z,3.60
2023-01-30T21:26:57.758Z,3.00
2023-01-30T21:31:59.959Z,2.90
2023-01-30T21:37:20.748Z,3.00
2023-01-30T21:42:48.712Z,2.80
2023-01-30T21:47:51.943Z,2.40
2023-01-30T21:52:54.287Z,2.70
2023-01-30T21:57:56.784Z,2.50
2023-01-30T22:02:58.676Z,2.30
2023-01-30T22:08:00.571Z,2.40
2023-01-30T22:13:06.236Z,2.40
2023-01-30T22:18:08.291Z,3.10
2023-01-30T22:23:10.615Z,5.30
2023-01-30T22:28:12.488Z,6.30
2023-01-30T22:33:14.890Z,5.50
2023-01-30T22:38:17.072Z,4.20
2023-01-30T22:43:19.049Z,4.80
2023-01-30T22:48:21.016Z,4.70
2023-01-30T22:53:23.667Z,6.20
2023-01-30T22:58:25.900Z,7.60
2023-01-30T23:03:28.193Z,7.50
2023-01-30T23:08:32.614Z,7.90
2023-01-30T23:13:39.099Z,6.80
2023-01-30T23:18:58.224Z,7.10
2023-01-30T23:24:02.205Z,8.50
2023-01-30T23:29:13.864Z,8.40
2023-01-30T23:34:18.561Z,7.70
2023-01-30T23:39:20.753Z,6.10
2023-01-30T23:44:23.270Z,5.20
2023-01-30T23:49:25.431Z,4.20
2023-01-30T23:54:30.054Z,4.10
2023-01-30T23:59:43.665Z,4.40
